Time;durP1;ratioP1;P1;durP2;ratioP2;P2;SDS_P1;SDS_P2;PMS_P1;PMS_P2;Temp;Humidity;BMP_temperature;BMP_pressure;BME280_temperature;BME280_humidity;BME280_pressure;Samples;Min_cycle;Max_cycle;Signal;HPM_P1;HPM_P2
2023/12/15 00:00:21;;;;;;;7.23;6.53;;;4.40;99.90;;;;;;5039939;28;20905;-67
2023/12/15 00:02:48;;;;;;;8.77;6.43;;;4.40;99.90;;;;;;5029442;28;20296;-67
2023/12/15 00:05:16;;;;;;;7.50;6.80;;;4.40;99.90;;;;;;5040286;28;20331;-67
2023/12/15 00:07:43;;;;;;;7.97;6.50;;;4.40;99.90;;;;;;5046312;28;20319;-67
2023/12/15 00:10:11;;;;;;;7.53;6.47;;;4.40;99.90;;;;;;5046393;28;20228;-68
2023/12/15 00:12:38;;;;;;;7.13;6.43;;;4.40;99.90;;;;;;5039144;28;20205;-68
2023/12/15 00:15:06;;;;;;;7.03;6.33;;;4.40;99.90;;;;;;5039680;28;20196;-68
2023/12/15 00:17:33;;;;;;;6.30;5.67;;;4.40;99.90;;;;;;5048469;28;20291;-68
2023/12/15 00:19:59;;;;;;;8.80;6.37;;;4.40;99.90;;;;;;5038706;28;20501;-68
2023/12/15 00:22:28;;;;;;;6.80;6.13;;;4.40;99.90;;;;;;5028847;28;20220;-68
2023/12/15 00:24:55;;;;;;;9.83;5.80;;;4.40;99.90;;;;;;5028398;28;20299;-68
2023/12/15 00:27:21;;;;;;;8.20;5.73;;;4.40;99.90;;;;;;5028490;28;20271;-68
2023/12/15 00:29:48;;;;;;;6.33;5.67;;;4.40;99.90;;;;;;5028154;28;20235;-68
2023/12/15 00:32:15;;;;;;;5.93;5.27;;;4.30;99.90;;;;;;5046469;28;20300;-68
2023/12/15 00:34:42;;;;;;;6.13;5.57;;;4.30;99.90;;;;;;5038257;28;20300;-69
2023/12/15 00:37:10;;;;;;;7.20;5.97;;;4.40;99.90;;;;;;5047649;28;20233;-68
2023/12/15 00:39:38;;;;;;;6.30;5.70;;;4.40;99.90;;;;;;5048351;28;20239;-67
2023/12/15 00:42:06;;;;;;;6.33;5.73;;;4.30;99.90;;;;;;5048060;28;20215;-67
2023/12/15 00:44:33;;;;;;;7.00;5.73;;;4.30;99.90;;;;;;5048237;28;20295;-68
2023/12/15 00:47:00;;;;;;;8.77;5.80;;;4.30;99.90;;;;;;5041650;28;20202;-67
2023/12/15 00:49:27;;;;;;;6.50;5.80;;;4.30;99.90;;;;;;5027754;28;20337;-67
2023/12/15 00:51:54;;;;;;;7.00;6.30;;;4.30;99.90;;;;;;5027742;28;20776;-67
2023/12/15 00:54:21;;;;;;;10.23;7.40;;;4.30;99.90;;;;;;5031011;28;20313;-68
2023/12/15 00:56:50;;;;;;;10.63;6.40;;;4.30;99.90;;;;;;5047831;28;20608;-67
2023/12/15 00:59:17;;;;;;;9.70;7.47;;;4.30;99.90;;;;;;5047797;28;20609;-67
2023/12/15 01:01:44;;;;;;;10.07;8.00;;;4.30;99.90;;;;;;5047227;28;20311;-68
2023/12/15 01:04:10;;;;;;;13.07;10.40;;;4.30;99.90;;;;;;5047452;28;20598;-68
2023/12/15 01:06:37;;;;;;;13.17;10.83;;;4.30;99.90;;;;;;5047379;28;20339;-69
2023/12/15 01:09:04;;;;;;;13.17;10.40;;;4.30;99.90;;;;;;5034784;28;20254;-68
2023/12/15 01:11:31;;;;;;;9.70;8.70;;;4.30;99.90;;;;;;5040699;28;20323;-69
2023/12/15 01:13:59;;;;;;;10.20;7.77;;;4.30;99.90;;;;;;5043704;28;20204;-68
2023/12/15 01:16:26;;;;;;;10.00;7.67;;;4.30;99.90;;;;;;5037254;28;20296;-68
2023/12/15 01:18:53;;;;;;;7.63;6.77;;;4.30;99.90;;;;;;5046875;28;20302;-68
2023/12/15 01:21:20;;;;;;;7.40;6.60;;;4.40;99.90;;;;;;5047470;28;20308;-68
2023/12/15 01:23:47;;;;;;;6.73;6.13;;;4.20;99.90;;;;;;5046754;28;20287;-68
2023/12/15 01:26:14;;;;;;;7.13;6.03;;;4.20;99.90;;;;;;5046945;28;20661;-68
2023/12/15 01:28:41;;;;;;;9.00;5.87;;;4.20;99.90;;;;;;5047069;28;20429;-67
2023/12/15 01:31:09;;;;;;;6.83;6.13;;;4.10;99.90;;;;;;5055795;28;20223;-67
2023/12/15 01:33:36;;;;;;;6.90;6.30;;;4.00;99.90;;;;;;5062087;28;20738;-67
2023/12/15 01:36:03;;;;;;;8.17;6.10;;;3.90;99.90;;;;;;5046840;28;20299;-67
2023/12/15 01:38:29;;;;;;;7.80;6.30;;;3.80;99.90;;;;;;5047012;28;20212;-67
2023/12/15 01:40:56;;;;;;;7.37;6.40;;;3.80;99.90;;;;;;5036166;28;20319;-68
2023/12/15 01:43:23;;;;;;;7.63;6.13;;;3.90;99.90;;;;;;5046610;28;20303;-68
2023/12/15 01:45:50;;;;;;;6.80;6.17;;;3.80;99.90;;;;;;5046726;28;20730;-67
2023/12/15 01:48:18;;;;;;;7.03;6.33;;;3.80;99.90;;;;;;5034741;28;21021;-67
2023/12/15 01:50:45;;;;;;;6.57;5.93;;;3.80;99.90;;;;;;5026059;28;20240;-68
2023/12/15 01:53:12;;;;;;;6.57;5.93;;;3.80;99.90;;;;;;5026478;28;20212;-68
2023/12/15 01:55:39;;;;;;;6.93;6.10;;;3.80;99.90;;;;;;5026442;28;20292;-68
2023/12/15 01:58:06;;;;;;;6.57;5.97;;;3.80;99.90;;;;;;5042854;28;20208;-68
2023/12/15 02:00:32;;;;;;;8.03;5.97;;;3.80;99.90;;;;;;5045363;28;20739;-68
2023/12/15 02:02:59;;;;;;;6.70;6.00;;;3.80;99.90;;;;;;5045622;28;20201;-68
2023/12/15 02:05:27;;;;;;;6.10;5.50;;;3.70;99.90;;;;;;5046416;28;20203;-67
2023/12/15 02:07:54;;;;;;;6.83;6.03;;;3.80;99.90;;;;;;5044874;28;20278;-67
2023/12/15 02:10:20;;;;;;;7.57;6.13;;;3.70;99.90;;;;;;5030212;28;20328;-68
2023/12/15 02:12:47;;;;;;;6.77;5.43;;;3.70;99.90;;;;;;5046158;28;20290;-68
2023/12/15 02:15:14;;;;;;;6.37;5.73;;;3.70;99.90;;;;;;5046416;28;20208;-68
2023/12/15 02:17:42;;;;;;;6.90;6.07;;;3.70;99.90;;;;;;5046063;28;20322;-68
2023/12/15 02:20:10;;;;;;;6.40;5.80;;;3.60;99.90;;;;;;5046268;28;20300;-68
2023/12/15 02:22:38;;;;;;;9.20;5.90;;;3.50;99.90;;;;;;5046141;28;20239;-68
2023/12/15 02:25:05;;;;;;;8.03;5.90;;;3.50;99.90;;;;;;5032360;28;20703;-68
2023/12/15 02:27:33;;;;;;;6.77;5.30;;;3.30;99.90;;;;;;5046253;28;20650;-69
2023/12/15 02:30:00;;;;;;;8.27;5.57;;;3.20;99.90;;;;;;5033304;28;20251;-68
2023/12/15 02:32:27;;;;;;;7.10;5.70;;;3.10;99.90;;;;;;5045869;28;20757;-68
2023/12/15 02:34:54;;;;;;;6.47;5.87;;;3.10;99.90;;;;;;5045925;28;20745;-68
2023/12/15 02:37:21;;;;;;;6.47;5.57;;;3.10;99.90;;;;;;5046038;28;20303;-68
2023/12/15 02:39:49;;;;;;;6.17;5.50;;;3.10;99.90;;;;;;5045735;28;20300;-68
2023/12/15 02:42:16;;;;;;;8.23;5.53;;;3.10;99.90;;;;;;5025793;28;20290;-68
2023/12/15 02:44:44;;;;;;;6.40;5.57;;;3.10;99.90;;;;;;5026020;28;20671;-68
2023/12/15 02:47:11;;;;;;;6.53;5.83;;;2.90;99.90;;;;;;5035616;28;20243;-68
2023/12/15 02:49:39;;;;;;;6.77;5.83;;;2.90;99.90;;;;;;5046041;28;20213;-68
2023/12/15 02:52:06;;;;;;;8.57;6.60;;;2.90;99.90;;;;;;5045230;28;20784;-68
2023/12/15 02:54:33;;;;;;;9.23;6.00;;;2.80;99.90;;;;;;5029500;28;20217;-68
2023/12/15 02:57:05;;;;;;;7.63;6.33;;;2.80;99.90;;;;;;5029446;28;20214;-68
2023/12/15 02:59:32;;;;;;;9.43;6.50;;;2.80;99.90;;;;;;5026387;28;20689;-68
2023/12/15 03:02:48;;;;;;;11.17;7.23;;;2.90;99.90;;;;;;5025748;28;20216;-68
2023/12/15 03:08:36;;;;;;;10.50;6.30;;;3.00;99.90;;;;;;5037059;28;20326;-68
2023/12/15 03:11:04;;;;;;;18.07;6.60;;;2.90;99.90;;;;;;5038343;28;20231;-67
2023/12/15 03:13:32;;;;;;;15.87;6.13;;;2.90;99.90;;;;;;5036448;28;20233;-68
2023/12/15 03:16:05;;;;;;;19.47;5.90;;;2.90;99.90;;;;;;5040515;28;20279;-68
2023/12/15 03:18:32;;;;;;;19.63;5.87;;;2.90;99.90;;;;;;5046047;28;20852;-67
2023/12/15 03:21:00;;;;;;;12.67;5.97;;;2.80;99.90;;;;;;5040637;28;20856;-68
2023/12/15 03:23:27;;;;;;;6.40;5.73;;;2.80;99.90;;;;;;5051152;28;20208;-68
2023/12/15 03:25:54;;;;;;;8.27;6.03;;;2.70;99.90;;;;;;5046610;28;20218;-68
2023/12/15 03:28:21;;;;;;;15.23;6.37;;;2.70;99.90;;;;;;5029119;28;20204;-68
2023/12/15 03:30:49;;;;;;;6.43;5.53;;;2.70;99.90;;;;;;5029472;28;20236;-68
2023/12/15 03:33:16;;;;;;;14.07;6.67;;;2.70;99.90;;;;;;5029236;28;20307;-68
2023/12/15 03:35:43;;;;;;;17.40;5.70;;;2.70;99.90;;;;;;5035514;28;20291;-68
2023/12/15 03:38:12;;;;;;;15.30;5.67;;;2.80;99.90;;;;;;5048839;28;20212;-68
2023/12/15 03:40:39;;;;;;;22.83;7.03;;;2.60;99.90;;;;;;5043742;28;20640;-68
2023/12/15 03:43:06;;;;;;;10.73;5.83;;;2.60;99.90;;;;;;5046838;28;20208;-68
2023/12/15 03:45:33;;;;;;;8.93;4.87;;;2.60;99.90;;;;;;5048742;28;20254;-68
2023/12/15 03:48:01;;;;;;;5.93;5.37;;;2.60;99.90;;;;;;5048672;28;20203;-68
2023/12/15 03:50:28;;;;;;;15.77;5.07;;;2.70;99.90;;;;;;5047440;28;20327;-68
2023/12/15 03:52:55;;;;;;;34.10;5.80;;;2.50;99.90;;;;;;5028717;28;20216;-68
2023/12/15 03:55:23;;;;;;;8.43;5.37;;;2.30;99.90;;;;;;5028539;28;20662;-68
2023/12/15 03:57:53;;;;;;;8.47;5.03;;;2.30;99.90;;;;;;5028537;28;20219;-68
2023/12/15 04:00:20;;;;;;;6.67;5.30;;;2.40;99.90;;;;;;5041309;28;20398;-68
2023/12/15 04:02:47;;;;;;;12.40;5.37;;;2.60;99.90;;;;;;5048410;28;20303;-68
2023/12/15 04:05:15;;;;;;;11.30;5.73;;;2.60;99.90;;;;;;5048345;28;20208;-68
2023/12/15 04:07:42;;;;;;;31.97;5.83;;;2.60;99.90;;;;;;5048065;28;20334;-68
2023/12/15 04:10:10;;;;;;;10.43;5.47;;;2.70;99.90;;;;;;5048023;28;20303;-68
2023/12/15 04:12:37;;;;;;;12.37;5.20;;;2.50;99.90;;;;;;5047995;28;20319;-68
2023/12/15 04:15:05;;;;;;;18.13;5.67;;;2.50;99.90;;;;;;5048177;28;20611;-68
2023/12/15 04:17:31;;;;;;;27.40;5.67;;;2.50;99.90;;;;;;5048221;28;20200;-68
2023/12/15 04:19:58;;;;;;;11.60;5.47;;;2.50;99.90;;;;;;5047625;28;20303;-68
2023/12/15 04:22:26;;;;;;;23.63;4.77;;;2.40;99.90;;;;;;5047427;28;20251;-68
2023/12/15 04:24:53;;;;;;;10.67;4.80;;;2.40;99.90;;;;;;5048032;28;20212;-69
2023/12/15 04:27:20;;;;;;;13.57;6.00;;;2.40;99.90;;;;;;5035202;28;20209;-68
2023/12/15 04:29:47;;;;;;;7.93;5.00;;;2.30;99.90;;;;;;5028215;28;20310;-68
2023/12/15 04:32:14;;;;;;;16.03;4.77;;;2.30;99.90;;;;;;5028080;28;20785;-68
2023/12/15 04:34:41;;;;;;;21.10;5.50;;;2.40;99.90;;;;;;5033457;28;20228;-68
2023/12/15 04:37:08;;;;;;;32.67;5.40;;;2.40;99.90;;;;;;5047871;28;20300;-68
2023/12/15 04:39:36;;;;;;;14.03;5.33;;;2.40;99.90;;;;;;5047849;28;20244;-68
2023/12/15 04:42:03;;;;;;;15.27;4.57;;;2.40;99.90;;;;;;5038446;28;20223;-68
2023/12/15 04:44:33;;;;;;;9.97;5.10;;;2.20;99.90;;;;;;5047988;28;21143;-68
2023/12/15 04:46:59;;;;;;;8.10;5.40;;;2.20;99.90;;;;;;5032005;28;20299;-69
2023/12/15 04:49:26;;;;;;;13.70;5.50;;;2.20;99.90;;;;;;5027734;28;20299;-68
2023/12/15 04:51:53;;;;;;;22.53;5.30;;;2.20;99.90;;;;;;5027451;28;20703;-69
2023/12/15 04:54:20;;;;;;;23.93;6.00;;;2.30;99.90;;;;;;5027875;28;20296;-68
2023/12/15 04:56:48;;;;;;;12.70;6.03;;;2.20;99.90;;;;;;5027518;28;20294;-68
2023/12/15 04:59:15;;;;;;;37.13;7.03;;;2.20;99.90;;;;;;5041636;28;20212;-69
2023/12/15 05:01:44;;;;;;;21.03;6.77;;;2.10;99.90;;;;;;5047323;28;20235;-68
2023/12/15 05:04:11;;;;;;;17.20;6.33;;;2.10;99.90;;;;;;5047321;28;20208;-68
2023/12/15 05:06:38;;;;;;;22.00;7.17;;;2.20;99.90;;;;;;5034226;28;20280;-69
2023/12/15 05:09:08;;;;;;;11.33;7.87;;;2.10;99.90;;;;;;5038886;28;20266;-69
2023/12/15 05:11:36;;;;;;;21.23;11.10;;;2.10;99.90;;;;;;5033127;28;20229;-69
2023/12/15 05:14:04;;;;;;;12.43;6.47;;;2.20;99.90;;;;;;5027467;28;20310;-68
2023/12/15 05:16:31;;;;;;;15.10;7.27;;;2.20;99.90;;;;;;5051517;28;20288;-69
2023/12/15 05:18:58;;;;;;;20.97;7.23;;;2.10;99.90;;;;;;5067052;28;20247;-68
2023/12/15 05:21:26;;;;;;;16.80;8.47;;;2.10;99.90;;;;;;5045601;28;20205;-68
2023/12/15 05:23:52;;;;;;;19.60;7.37;;;2.20;99.90;;;;;;5027427;28;20300;-68
2023/12/15 05:26:19;;;;;;;14.07;8.40;;;2.30;99.90;;;;;;5033453;28;20211;-67
2023/12/15 05:28:46;;;;;;;15.27;8.10;;;2.40;99.90;;;;;;5046760;28;20243;-68
2023/12/15 05:31:14;;;;;;;28.63;9.40;;;2.40;99.90;;;;;;5046871;28;20675;-68
2023/12/15 05:33:43;;;;;;;38.40;8.53;;;2.40;99.90;;;;;;5047234;28;20210;-68
2023/12/15 05:36:17;;;;;;;12.47;8.53;;;2.30;99.90;;;;;;5045318;28;20685;-68
2023/12/15 05:38:44;;;;;;;25.17;8.47;;;2.30;99.90;;;;;;5047013;28;20710;-68
2023/12/15 05:41:11;;;;;;;11.70;8.63;;;2.30;99.90;;;;;;5046645;28;20666;-68
2023/12/15 05:43:38;;;;;;;16.80;8.70;;;2.40;99.90;;;;;;5046557;28;20215;-68
2023/12/15 05:46:05;;;;;;;16.33;9.17;;;2.50;99.90;;;;;;5041686;28;20306;-68
2023/12/15 05:48:34;;;;;;;14.10;8.57;;;2.40;99.90;;;;;;5026276;28;20300;-68
2023/12/15 05:51:01;;;;;;;14.23;9.30;;;2.50;99.90;;;;;;5044018;28;20335;-68
2023/12/15 05:53:27;;;;;;;15.60;8.97;;;2.50;99.90;;;;;;5046314;28;20207;-68
2023/12/15 05:55:54;;;;;;;18.47;9.13;;;2.50;99.90;;;;;;5041989;28;20223;-68
2023/12/15 05:58:21;;;;;;;12.07;8.90;;;2.60;99.90;;;;;;5026320;28;20303;-68
2023/12/15 06:00:49;;;;;;;11.93;8.90;;;2.70;99.90;;;;;;5026684;28;20215;-68
2023/12/15 06:03:17;;;;;;;14.80;9.47;;;2.70;99.90;;;;;;5026415;28;20299;-68
2023/12/15 06:05:45;;;;;;;19.50;8.97;;;2.70;99.90;;;;;;5027938;28;20209;-68
2023/12/15 06:08:13;;;;;;;13.30;9.17;;;2.70;99.90;;;;;;5030584;28;20311;-68
2023/12/15 06:10:41;;;;;;;12.30;8.33;;;2.60;99.90;;;;;;5046120;28;20782;-68
2023/12/15 06:13:09;;;;;;;13.13;9.20;;;2.50;99.90;;;;;;5045351;28;20242;-68
2023/12/15 06:15:36;;;;;;;15.77;9.27;;;2.60;99.90;;;;;;5037737;28;20287;-68
2023/12/15 06:18:05;;;;;;;15.40;9.43;;;2.60;99.90;;;;;;5045924;28;20247;-68
2023/12/15 06:20:32;;;;;;;20.37;11.50;;;2.60;99.90;;;;;;5046121;28;20212;-68
2023/12/15 06:23:00;;;;;;;14.63;8.83;;;2.50;99.90;;;;;;5046031;28;20210;-68
2023/12/15 06:25:27;;;;;;;12.50;9.70;;;2.50;99.90;;;;;;5045766;28;20196;-68
2023/12/15 06:27:54;;;;;;;13.60;9.07;;;2.50;99.90;;;;;;5045693;28;20304;-68
2023/12/15 06:30:21;;;;;;;12.73;9.40;;;2.60;99.90;;;;;;5046176;28;20572;-69
2023/12/15 06:32:48;;;;;;;14.50;9.97;;;2.50;99.90;;;;;;5046128;28;21063;-68
2023/12/15 06:35:16;;;;;;;13.87;9.77;;;2.50;99.90;;;;;;5044496;28;20609;-68
2023/12/15 06:37:43;;;;;;;12.80;9.77;;;2.50;99.90;;;;;;5044393;28;20208;-68
2023/12/15 06:40:12;;;;;;;13.17;9.80;;;2.60;99.90;;;;;;5046074;28;20302;-69
2023/12/15 06:42:39;;;;;;;14.00;9.70;;;2.70;99.90;;;;;;5045662;28;20278;-69
2023/12/15 06:45:08;;;;;;;12.33;9.87;;;2.70;99.90;;;;;;5043534;28;20291;-69
2023/12/15 06:47:37;;;;;;;13.80;10.20;;;2.80;99.90;;;;;;5030058;28;20208;-68
2023/12/15 06:50:05;;;;;;;15.40;10.50;;;2.80;99.90;;;;;;5029789;28;20717;-68
2023/12/15 06:52:33;;;;;;;14.73;10.70;;;2.90;99.90;;;;;;5030311;28;20314;-68
2023/12/15 06:55:00;;;;;;;15.87;10.30;;;2.80;99.90;;;;;;5030163;28;20204;-68
2023/12/15 06:57:29;;;;;;;15.73;11.63;;;2.80;99.90;;;;;;5029857;28;20221;-68
2023/12/15 06:59:56;;;;;;;13.37;10.43;;;2.90;99.90;;;;;;5030451;28;20224;-68
2023/12/15 07:02:23;;;;;;;16.10;10.30;;;2.90;99.90;;;;;;5030143;28;20295;-68
2023/12/15 07:04:50;;;;;;;14.27;10.07;;;2.90;99.90;;;;;;5041183;28;20309;-68
2023/12/15 07:07:17;;;;;;;14.27;10.70;;;2.90;99.90;;;;;;5035419;28;20825;-68
2023/12/15 07:09:44;;;;;;;16.27;11.20;;;2.80;99.90;;;;;;5043835;28;20254;-68
2023/12/15 07:12:10;;;;;;;16.47;11.37;;;2.70;99.90;;;;;;5046294;28;20227;-68
2023/12/15 07:14:39;;;;;;;17.37;11.33;;;2.60;99.90;;;;;;5049737;28;20254;-68
2023/12/15 07:17:05;;;;;;;17.00;11.27;;;2.50;99.90;;;;;;5049468;28;20665;-68
2023/12/15 07:19:32;;;;;;;14.80;10.53;;;2.50;99.90;;;;;;5037590;28;20239;-68
2023/12/15 07:21:59;;;;;;;15.50;11.20;;;2.50;99.90;;;;;;5029519;28;20287;-68
2023/12/15 07:24:26;;;;;;;19.97;12.57;;;2.50;99.90;;;;;;5029707;28;20622;-68
2023/12/15 07:26:53;;;;;;;20.70;12.20;;;2.60;99.90;;;;;;5028971;28;20300;-68
2023/12/15 07:29:21;;;;;;;29.47;12.23;;;2.60;99.90;;;;;;5029493;28;20264;-68
2023/12/15 07:31:50;;;;;;;19.83;12.27;;;2.50;99.90;;;;;;5029667;28;20229;-68
2023/12/15 07:34:17;;;;;;;25.50;12.03;;;2.50;99.90;;;;;;5035167;28;20311;-68
2023/12/15 07:36:45;;;;;;;26.17;12.83;;;2.50;99.90;;;;;;5049540;28;20208;-68
2023/12/15 07:39:12;;;;;;;21.87;12.77;;;2.50;99.90;;;;;;5049595;28;20707;-68
2023/12/15 07:41:39;;;;;;;24.13;13.87;;;2.60;99.90;;;;;;5035560;28;20238;-68
2023/12/15 07:44:06;;;;;;;25.73;13.93;;;2.70;99.90;;;;;;5044341;28;20687;-68
2023/12/15 07:46:33;;;;;;;24.77;14.13;;;2.70;99.90;;;;;;5035843;28;20212;-68
2023/12/15 07:49:01;;;;;;;27.13;14.80;;;2.80;99.90;;;;;;5044405;28;20207;-68
2023/12/15 07:51:28;;;;;;;25.87;14.50;;;2.80;99.90;;;;;;5049158;28;20236;-68
2023/12/15 07:53:55;;;;;;;27.80;14.17;;;2.90;99.90;;;;;;5049025;28;20234;-68
2023/12/15 07:56:24;;;;;;;24.80;14.40;;;2.90;99.90;;;;;;5048483;28;20213;-68
2023/12/15 07:58:52;;;;;;;25.77;13.80;;;2.90;99.90;;;;;;5047951;28;20247;-68
2023/12/15 08:01:19;;;;;;;25.17;14.70;;;3.00;99.90;;;;;;5048768;28;20265;-68
2023/12/15 08:03:46;;;;;;;25.03;14.77;;;3.00;99.90;;;;;;5048656;28;20243;-68
2023/12/15 08:06:16;;;;;;;25.40;14.77;;;3.00;99.90;;;;;;5032914;28;20267;-67
2023/12/15 08:08:43;;;;;;;25.53;14.43;;;2.90;99.90;;;;;;5028406;28;20735;-68
2023/12/15 08:11:11;;;;;;;24.30;14.67;;;2.90;99.90;;;;;;5039259;28;20754;-68
2023/12/15 08:13:38;;;;;;;25.33;14.93;;;2.90;99.90;;;;;;5044923;28;20224;-68
2023/12/15 08:16:07;;;;;;;25.43;14.80;;;2.90;99.90;;;;;;5045920;28;20236;-68
2023/12/15 08:18:34;;;;;;;25.10;14.47;;;2.90;99.90;;;;;;5044657;28;20291;-68
2023/12/15 08:21:01;;;;;;;26.33;14.40;;;3.00;99.90;;;;;;5048355;28;20291;-68
2023/12/15 08:23:30;;;;;;;25.90;15.13;;;3.00;99.90;;;;;;5048233;28;20975;-68
2023/12/15 08:25:56;;;;;;;22.77;14.30;;;3.10;99.90;;;;;;5048133;28;20753;-68
2023/12/15 08:28:24;;;;;;;23.07;13.93;;;3.10;99.90;;;;;;5047863;28;20214;-67
2023/12/15 08:30:51;;;;;;;26.23;14.37;;;3.10;99.90;;;;;;5047717;28;20900;-68
2023/12/15 08:33:18;;;;;;;23.67;14.33;;;3.10;99.90;;;;;;5030399;28;20239;-67
2023/12/15 08:35:45;;;;;;;23.97;13.87;;;3.20;99.90;;;;;;5028667;28;20254;-67
2023/12/15 08:38:12;;;;;;;26.03;15.17;;;3.20;99.90;;;;;;5027935;28;20296;-67
2023/12/15 08:40:40;;;;;;;21.37;13.27;;;3.20;99.90;;;;;;5035064;28;20303;-67
2023/12/15 08:43:07;;;;;;;22.73;13.67;;;3.20;99.90;;;;;;5047709;28;20299;-67
2023/12/15 08:45:33;;;;;;;20.83;13.37;;;3.30;99.90;;;;;;5027970;28;20303;-67
2023/12/15 08:48:00;;;;;;;28.57;16.60;;;3.20;99.90;;;;;;5027599;28;20208;-68
2023/12/15 08:50:27;;;;;;;23.40;14.80;;;3.20;99.90;;;;;;5027643;28;20234;-68
2023/12/15 08:52:55;;;;;;;23.17;13.33;;;3.30;99.90;;;;;;5038237;28;20320;-69
2023/12/15 08:55:22;;;;;;;20.87;13.20;;;3.40;99.90;;;;;;5048015;28;20203;-68
2023/12/15 08:57:51;;;;;;;24.00;14.23;;;3.40;99.90;;;;;;5047801;28;20352;-68
2023/12/15 09:00:18;;;;;;;20.00;12.90;;;3.40;99.90;;;;;;5048140;28;20422;-68
2023/12/15 09:02:45;;;;;;;20.13;13.10;;;3.40;99.90;;;;;;5047746;28;20219;-68
2023/12/15 09:05:13;;;;;;;21.03;12.73;;;3.50;99.90;;;;;;5047232;28;20235;-68
2023/12/15 09:07:40;;;;;;;18.63;12.30;;;3.50;99.90;;;;;;5047269;28;20228;-68
2023/12/15 09:10:08;;;;;;;19.23;12.10;;;3.50;99.90;;;;;;5046938;28;20675;-68
2023/12/15 09:12:35;;;;;;;21.57;12.53;;;3.50;99.90;;;;;;5041720;28;20736;-68
2023/12/15 09:15:03;;;;;;;19.87;12.17;;;3.50;99.90;;;;;;5038772;28;20299;-67
2023/12/15 09:17:30;;;;;;;18.83;12.97;;;3.50;99.90;;;;;;5047557;28;20204;-67
2023/12/15 09:19:57;;;;;;;21.73;12.50;;;3.50;99.90;;;;;;5047393;28;20299;-68
2023/12/15 09:22:24;;;;;;;22.37;13.13;;;3.60;99.90;;;;;;5047239;28;20315;-68
2023/12/15 09:24:51;;;;;;;18.70;12.27;;;3.60;99.90;;;;;;5046980;28;20304;-69
2023/12/15 09:27:18;;;;;;;22.37;12.83;;;3.70;99.90;;;;;;5046813;28;20209;-68
2023/12/15 09:29:45;;;;;;;19.43;13.10;;;3.70;99.90;;;;;;5047197;28;20215;-69
2023/12/15 09:32:14;;;;;;;19.67;12.83;;;3.70;99.90;;;;;;5046967;28;20208;-69
2023/12/15 09:34:41;;;;;;;18.80;12.17;;;3.80;99.90;;;;;;5045162;28;20288;-68
2023/12/15 09:37:09;;;;;;;19.97;12.80;;;3.80;99.90;;;;;;5046747;28;20248;-68
2023/12/15 09:39:36;;;;;;;19.13;12.07;;;3.80;99.90;;;;;;5027283;28;20207;-68
2023/12/15 09:42:03;;;;;;;22.50;12.57;;;3.80;99.90;;;;;;5044601;28;20219;-68
2023/12/15 09:44:30;;;;;;;19.63;13.07;;;3.90;99.90;;;;;;5046732;28;20303;-68
2023/12/15 09:46:59;;;;;;;19.73;13.27;;;3.90;99.90;;;;;;5047007;28;20323;-68
2023/12/15 09:49:27;;;;;;;20.90;14.47;;;3.90;99.90;;;;;;5046488;28;20295;-68
2023/12/15 09:51:54;;;;;;;18.00;12.17;;;4.00;99.90;;;;;;5046463;28;20231;-68
2023/12/15 09:54:22;;;;;;;22.70;13.87;;;4.00;99.90;;;;;;5045413;28;20713;-68
2023/12/15 09:56:50;;;;;;;21.90;13.60;;;4.00;99.90;;;;;;5050378;28;20227;-68
2023/12/15 09:59:17;;;;;;;21.50;13.63;;;4.00;99.90;;;;;;5066717;28;20210;-68
2023/12/15 10:01:43;;;;;;;20.97;13.43;;;4.00;99.90;;;;;;5051480;28;20283;-68
2023/12/15 10:04:10;;;;;;;21.70;14.33;;;4.00;99.90;;;;;;5046292;28;20324;-68
2023/12/15 10:06:39;;;;;;;18.83;13.17;;;4.00;99.90;;;;;;5047032;28;20214;-68
2023/12/15 10:09:12;;;;;;;19.73;13.73;;;4.00;99.90;;;;;;5046440;28;20236;-68
2023/12/15 10:11:40;;;;;;;19.77;13.70;;;4.00;99.90;;;;;;5041659;28;20235;-68
2023/12/15 10:14:07;;;;;;;19.47;13.60;;;4.00;99.90;;;;;;5029990;28;20228;-68
2023/12/15 10:16:35;;;;;;;21.00;14.37;;;4.00;99.90;;;;;;5038132;28;20315;-68
2023/12/15 10:19:03;;;;;;;23.27;14.10;;;4.10;99.90;;;;;;5026699;28;20601;-68
2023/12/15 10:21:31;;;;;;;22.07;13.27;;;4.10;99.90;;;;;;5026133;28;20227;-69
2023/12/15 10:23:59;;;;;;;18.60;13.40;;;4.00;99.90;;;;;;5039421;28;20323;-68
2023/12/15 10:26:27;;;;;;;19.73;12.93;;;4.00;99.90;;;;;;5046379;28;20295;-69
2023/12/15 10:28:55;;;;;;;18.90;12.43;;;4.00;99.90;;;;;;5046558;28;20832;-68
2023/12/15 10:31:26;;;;;;;17.20;12.47;;;4.10;99.90;;;;;;5036115;28;20213;-67
2023/12/15 10:33:53;;;;;;;19.33;12.97;;;4.00;99.90;;;;;;5026098;28;20598;-67
2023/12/15 10:36:20;;;;;;;19.67;13.57;;;4.00;99.90;;;;;;5026631;28;20304;-67
2023/12/15 10:38:47;;;;;;;19.17;13.37;;;4.00;99.90;;;;;;5026377;28;20658;-67
2023/12/15 10:41:16;;;;;;;18.90;13.27;;;4.00;99.90;;;;;;5033684;28;20237;-67
2023/12/15 10:43:43;;;;;;;16.97;12.27;;;4.00;99.90;;;;;;5031326;28;20295;-67
2023/12/15 10:46:11;;;;;;;19.57;13.10;;;4.10;99.90;;;;;;5030328;28;20645;-67
2023/12/15 10:48:40;;;;;;;18.60;13.80;;;4.10;99.90;;;;;;5032023;28;20228;-67
2023/12/15 10:51:08;;;;;;;19.47;13.47;;;4.00;99.90;;;;;;5035019;28;20467;-67
2023/12/15 10:53:38;;;;;;;18.50;12.90;;;4.10;99.90;;;;;;5038961;28;20225;-67
2023/12/15 10:56:06;;;;;;;19.73;13.20;;;4.10;99.90;;;;;;5032361;28;20224;-67
2023/12/15 10:58:35;;;;;;;18.27;12.80;;;4.10;99.90;;;;;;5030170;28;20296;-67
2023/12/15 11:01:04;;;;;;;19.23;13.23;;;4.20;99.90;;;;;;5032840;28;20298;-67
2023/12/15 11:03:31;;;;;;;20.90;14.07;;;4.20;99.90;;;;;;5039502;28;20734;-67
2023/12/15 11:06:00;;;;;;;22.40;14.40;;;4.10;99.90;;;;;;5043605;28;20307;-67
2023/12/15 11:08:27;;;;;;;22.27;14.57;;;4.10;99.90;;;;;;5040888;28;20236;-67
2023/12/15 11:10:54;;;;;;;21.83;14.23;;;4.10;99.90;;;;;;5043902;28;20218;-67
2023/12/15 11:13:57;;;;;;;24.97;16.07;;;4.10;99.90;;;;;;5034592;28;20225;-67
2023/12/15 11:16:27;;;;;;;25.53;15.37;;;4.00;99.90;;;;;;5022541;28;20222;-67
2023/12/15 11:18:56;;;;;;;22.97;14.63;;;4.00;99.90;;;;;;5025959;28;20299;-67
2023/12/15 11:21:23;;;;;;;24.90;15.60;;;4.00;99.90;;;;;;5044043;28;20251;-67
2023/12/15 11:23:57;;;;;;;25.73;16.70;;;4.00;99.90;;;;;;5044067;28;20240;-67
2023/12/15 11:26:28;;;;;;;26.73;15.53;;;4.00;99.90;;;;;;5043895;28;20286;-67
2023/12/15 11:29:02;;;;;;;29.63;17.10;;;3.90;99.90;;;;;;5037554;28;20656;-67
2023/12/15 11:31:33;;;;;;;25.07;14.40;;;3.90;99.90;;;;;;5034579;28;20455;-67
2023/12/15 11:34:01;;;;;;;26.07;14.30;;;4.00;99.90;;;;;;5029687;28;20247;-67
2023/12/15 11:36:29;;;;;;;29.00;16.30;;;4.00;99.90;;;;;;5030179;28;20205;-67
2023/12/15 11:38:59;;;;;;;26.83;14.80;;;4.00;99.90;;;;;;5029899;28;20212;-67
2023/12/15 11:41:26;;;;;;;22.93;13.87;;;4.00;99.90;;;;;;5033778;28;20209;-67
2023/12/15 11:43:53;;;;;;;27.10;16.47;;;4.10;99.90;;;;;;5049414;28;20299;-67
2023/12/15 11:46:22;;;;;;;23.70;14.10;;;4.10;99.90;;;;;;5049785;28;20211;-67
2023/12/15 11:48:50;;;;;;;27.27;15.73;;;4.10;99.90;;;;;;5049179;28;20691;-67
2023/12/15 11:51:17;;;;;;;27.80;15.30;;;4.00;99.90;;;;;;5042409;28;20232;-67
2023/12/15 11:53:48;;;;;;;25.87;17.03;;;4.10;99.90;;;;;;5029485;28;20286;-67
2023/12/15 11:56:17;;;;;;;25.87;15.07;;;4.10;99.90;;;;;;5029889;28;20571;-67
2023/12/15 11:58:45;;;;;;;26.60;15.40;;;4.10;99.90;;;;;;5029753;28;20209;-67
2023/12/15 12:01:12;;;;;;;26.17;14.97;;;4.10;99.90;;;;;;5034408;28;20279;-67
2023/12/15 12:03:38;;;;;;;30.97;16.87;;;4.20;99.90;;;;;;5048509;28;20212;-67
2023/12/15 12:06:08;;;;;;;29.43;15.77;;;4.20;99.90;;;;;;5032732;28;20207;-67
2023/12/15 12:08:36;;;;;;;24.37;14.73;;;4.20;99.90;;;;;;5042800;28;20264;-67
2023/12/15 12:11:04;;;;;;;30.67;15.70;;;4.20;99.90;;;;;;5048948;28;20239;-67
2023/12/15 12:13:33;;;;;;;27.00;16.37;;;4.20;99.90;;;;;;5047805;28;20251;-67
2023/12/15 12:16:01;;;;;;;28.83;15.83;;;4.30;99.90;;;;;;5038561;28;20637;-67
2023/12/15 12:18:31;;;;;;;29.77;15.67;;;4.30;99.90;;;;;;5048901;28;20288;-67
2023/12/15 12:21:02;;;;;;;29.17;15.50;;;4.30;99.90;;;;;;5049138;28;20197;-67
2023/12/15 12:23:32;;;;;;;31.17;19.27;;;4.30;99.90;;;;;;5041638;28;20679;-67
2023/12/15 12:26:00;;;;;;;31.03;17.70;;;4.40;99.90;;;;;;5039500;28;20299;-67
2023/12/15 12:28:38;;;;;;;32.40;16.27;;;4.40;99.90;;;;;;5043517;28;20208;-67
2023/12/15 12:31:05;;;;;;;28.10;15.40;;;4.30;99.90;;;;;;5029012;28;20216;-67
2023/12/15 12:33:32;;;;;;;26.53;15.23;;;4.40;99.90;;;;;;5028706;28;20327;-67
2023/12/15 12:36:00;;;;;;;27.97;15.27;;;4.40;99.90;;;;;;5040508;28;20734;-67
2023/12/15 12:38:27;;;;;;;25.90;15.07;;;4.40;99.90;;;;;;5048705;28;20204;-67
2023/12/15 12:40:55;;;;;;;28.70;16.40;;;4.40;99.90;;;;;;5048570;28;20240;-67
2023/12/15 12:43:22;;;;;;;31.77;17.57;;;4.40;99.90;;;;;;5027627;28;20227;-67
2023/12/15 12:45:49;;;;;;;28.73;16.27;;;4.40;99.90;;;;;;5037052;28;20200;-67
2023/12/15 12:48:16;;;;;;;28.93;15.53;;;4.40;99.90;;;;;;5042755;28;20216;-67
2023/12/15 12:50:43;;;;;;;30.90;15.33;;;4.50;99.90;;;;;;5028184;28;20248;-67